sensor_id;sensor_type;location;lat;lon;timestamp;temperature;humidity
52211;DHT22;38179;52.756;6.906;2023-02-15T00:00:13;2.30;99.90
52211;DHT22;38179;52.756;6.906;2023-02-15T00:02:39;2.20;99.90
52211;DHT22;38179;52.756;6.906;2023-02-15T00:05:06;2.20;99.90
52211;DHT22;38179;52.756;6.906;2023-02-15T00:07:32;2.20;99.90
52211;DHT22;38179;52.756;6.906;2023-02-15T00:09:58;2.20;99.90
52211;DHT22;38179;52.756;6.906;2023-02-15T00:12:24;2.20;99.90
52211;DHT22;38179;52.756;6.906;2023-02-15T00:14:49;2.20;99.90
52211;DHT22;38179;52.756;6.906;2023-02-15T00:17:15;2.20;99.90
52211;DHT22;38179;52.756;6.906;2023-02-15T00:19:41;2.10;99.90
52211;DHT22;38179;52.756;6.906;2023-02-15T00:22:07;2.10;99.90
52211;DHT22;38179;52.756;6.906;2023-02-15T00:24:33;2.00;99.90
52211;DHT22;38179;52.756;6.906;2023-02-15T00:26:59;1.80;99.90
52211;DHT22;38179;52.756;6.906;2023-02-15T00:29:25;1.70;99.90
52211;DHT22;38179;52.756;6.906;2023-02-15T00:31:51;1.60;99.90
52211;DHT22;38179;52.756;6.906;2023-02-15T00:34:20;1.60;99.90
52211;DHT22;38179;52.756;6.906;2023-02-15T00:36:47;1.60;99.90
52211;DHT22;38179;52.756;6.906;2023-02-15T00:39:13;1.60;99.90
52211;DHT22;38179;52.756;6.906;2023-02-15T00:41:40;1.60;99.90
52211;DHT22;38179;52.756;6.906;2023-02-15T00:44:06;1.50;99.90
52211;DHT22;38179;52.756;6.906;2023-02-15T00:46:33;1.40;99.90
52211;DHT22;38179;52.756;6.906;2023-02-15T00:48:59;1.40;99.90
52211;DHT22;38179;52.756;6.906;2023-02-15T00:51:25;1.40;99.90
52211;DHT22;38179;52.756;6.906;2023-02-15T00:53:54;1.40;99.90
52211;DHT22;38179;52.756;6.906;2023-02-15T00:56:20;1.40;99.90
52211;DHT22;38179;52.756;6.906;2023-02-15T00:58:46;1.50;99.90
52211;DHT22;38179;52.756;6.906;2023-02-15T01:01:18;1.50;99.90
52211;DHT22;38179;52.756;6.906;2023-02-15T01:03:45;1.40;99.90
52211;DHT22;38179;52.756;6.906;2023-02-15T01:06:15;1.40;99.90
52211;DHT22;38179;52.756;6.906;2023-02-15T01:08:41;1.50;99.90
52211;DHT22;38179;52.756;6.906;2023-02-15T01:11:14;1.60;99.90
52211;DHT22;38179;52.756;6.906;2023-02-15T01:13:40;1.60;99.90
52211;DHT22;38179;52.756;6.906;2023-02-15T01:16:07;1.50;99.90
52211;DHT22;38179;52.756;6.906;2023-02-15T01:18:34;1.50;99.90
52211;DHT22;38179;52.756;6.906;2023-02-15T01:21:08;1.40;99.90
52211;DHT22;38179;52.756;6.906;2023-02-15T01:23:34;1.50;99.90
52211;DHT22;38179;52.756;6.906;2023-02-15T01:26:03;1.50;99.90
52211;DHT22;38179;52.756;6.906;2023-02-15T01:28:29;1.40;99.90
52211;DHT22;38179;52.756;6.906;2023-02-15T01:30:55;1.50;99.90
52211;DHT22;38179;52.756;6.906;2023-02-15T01:33:21;1.50;99.90
52211;DHT22;38179;52.756;6.906;2023-02-15T01:35:47;1.40;99.90
52211;DHT22;38179;52.756;6.906;2023-02-15T01:38:15;1.30;99.90
52211;DHT22;38179;52.756;6.906;2023-02-15T01:40:41;1.20;99.90
52211;DHT22;38179;52.756;6.906;2023-02-15T01:43:11;1.10;99.90
52211;DHT22;38179;52.756;6.906;2023-02-15T01:45:40;1.00;99.90
52211;DHT22;38179;52.756;6.906;2023-02-15T01:48:26;1.00;99.90
52211;DHT22;38179;52.756;6.906;2023-02-15T01:50:56;0.90;99.90
52211;DHT22;38179;52.756;6.906;2023-02-15T01:55:53;0.90;99.90
52211;DHT22;38179;52.756;6.906;2023-02-15T01:58:22;0.80;99.90
52211;DHT22;38179;52.756;6.906;2023-02-15T02:00:48;0.80;99.90
52211;DHT22;38179;52.756;6.906;2023-02-15T02:03:14;0.80;99.90
52211;DHT22;38179;52.756;6.906;2023-02-15T02:05:41;0.90;99.90
52211;DHT22;38179;52.756;6.906;2023-02-15T02:08:08;0.80;99.90
52211;DHT22;38179;52.756;6.906;2023-02-15T02:10:36;0.80;99.90
52211;DHT22;38179;52.756;6.906;2023-02-15T02:13:04;0.70;99.90
52211;DHT22;38179;52.756;6.906;2023-02-15T02:15:40;0.70;99.90
52211;DHT22;38179;52.756;6.906;2023-02-15T02:27:18;0.50;99.90
52211;DHT22;38179;52.756;6.906;2023-02-15T02:30:06;0.50;99.90
52211;DHT22;38179;52.756;6.906;2023-02-15T02:33:08;0.50;99.90
52211;DHT22;38179;52.756;6.906;2023-02-15T02:41:18;0.50;99.90
52211;DHT22;38179;52.756;6.906;2023-02-15T02:46:30;0.40;99.90
52211;DHT22;38179;52.756;6.906;2023-02-15T02:48:58;0.40;99.90
52211;DHT22;38179;52.756;6.906;2023-02-15T02:51:24;0.40;99.90
52211;DHT22;38179;52.756;6.906;2023-02-15T02:53:53;0.40;99.90
52211;DHT22;38179;52.756;6.906;2023-02-15T02:56:48;0.30;99.90
52211;DHT22;38179;52.756;6.906;2023-02-15T02:59:32;0.40;99.90
52211;DHT22;38179;52.756;6.906;2023-02-15T03:02:10;0.40;99.90
52211;DHT22;38179;52.756;6.906;2023-02-15T03:04:41;0.50;99.90
52211;DHT22;38179;52.756;6.906;2023-02-15T03:07:11;0.60;99.90
52211;DHT22;38179;52.756;6.906;2023-02-15T03:09:49;0.70;99.90
52211;DHT22;38179;52.756;6.906;2023-02-15T03:12:20;0.70;99.90
52211;DHT22;38179;52.756;6.906;2023-02-15T03:14:52;0.70;99.90
52211;DHT22;38179;52.756;6.906;2023-02-15T03:17:22;0.70;99.90
52211;DHT22;38179;52.756;6.906;2023-02-15T03:19:50;0.70;99.90
52211;DHT22;38179;52.756;6.906;2023-02-15T03:22:28;0.70;99.90
52211;DHT22;38179;52.756;6.906;2023-02-15T03:25:21;0.70;99.90
52211;DHT22;38179;52.756;6.906;2023-02-15T03:27:58;0.60;99.90
52211;DHT22;38179;52.756;6.906;2023-02-15T03:30:28;0.60;99.90
52211;DHT22;38179;52.756;6.906;2023-02-15T03:32:58;0.60;99.90
52211;DHT22;38179;52.756;6.906;2023-02-15T03:35:29;0.50;99.90
52211;DHT22;38179;52.756;6.906;2023-02-15T03:38:00;0.40;99.90
52211;DHT22;38179;52.756;6.906;2023-02-15T03:40:34;0.30;99.90
52211;DHT22;38179;52.756;6.906;2023-02-15T03:45:55;0.30;99.90
52211;DHT22;38179;52.756;6.906;2023-02-15T03:48:29;0.20;99.90
52211;DHT22;38179;52.756;6.906;2023-02-15T03:51:05;0.20;99.90
52211;DHT22;38179;52.756;6.906;2023-02-15T03:53:54;0.10;99.90
52211;DHT22;38179;52.756;6.906;2023-02-15T03:56:21;0.20;99.90
52211;DHT22;38179;52.756;6.906;2023-02-15T03:58:47;0.10;99.90
52211;DHT22;38179;52.756;6.906;2023-02-15T04:01:40;0.10;99.90
52211;DHT22;38179;52.756;6.906;2023-02-15T04:04:36;0.10;99.90
52211;DHT22;38179;52.756;6.906;2023-02-15T04:07:04;0.10;99.90
52211;DHT22;38179;52.756;6.906;2023-02-15T04:09:30;0.10;99.90
52211;DHT22;38179;52.756;6.906;2023-02-15T04:12:15;0.10;99.90
52211;DHT22;38179;52.756;6.906;2023-02-15T04:14:41;0.20;99.90
52211;DHT22;38179;52.756;6.906;2023-02-15T04:17:25;0.20;99.90
52211;DHT22;38179;52.756;6.906;2023-02-15T04:19:51;0.30;99.90
52211;DHT22;38179;52.756;6.906;2023-02-15T04:22:36;0.40;99.90
52211;DHT22;38179;52.756;6.906;2023-02-15T04:25:20;0.40;99.90
52211;DHT22;38179;52.756;6.906;2023-02-15T04:27:51;0.40;99.90
52211;DHT22;38179;52.756;6.906;2023-02-15T04:30:21;0.30;99.90
52211;DHT22;38179;52.756;6.906;2023-02-15T04:32:47;0.30;99.90
52211;DHT22;38179;52.756;6.906;2023-02-15T04:35:17;0.30;99.90
52211;DHT22;38179;52.756;6.906;2023-02-15T04:37:43;0.40;99.90
52211;DHT22;38179;52.756;6.906;2023-02-15T04:40:15;0.30;99.90
52211;DHT22;38179;52.756;6.906;2023-02-15T04:42:41;0.30;99.90
52211;DHT22;38179;52.756;6.906;2023-02-15T04:45:07;0.40;99.90
52211;DHT22;38179;52.756;6.906;2023-02-15T04:47:36;0.50;99.90
52211;DHT22;38179;52.756;6.906;2023-02-15T04:50:02;0.50;99.90
52211;DHT22;38179;52.756;6.906;2023-02-15T04:52:28;0.50;99.90
52211;DHT22;38179;52.756;6.906;2023-02-15T04:54:54;0.50;99.90
52211;DHT22;38179;52.756;6.906;2023-02-15T04:57:20;0.50;99.90
52211;DHT22;38179;52.756;6.906;2023-02-15T04:59:46;0.50;99.90
52211;DHT22;38179;52.756;6.906;2023-02-15T05:02:11;0.50;99.90
52211;DHT22;38179;52.756;6.906;2023-02-15T05:04:37;0.50;99.90
52211;DHT22;38179;52.756;6.906;2023-02-15T05:07:03;0.50;99.90
52211;DHT22;38179;52.756;6.906;2023-02-15T05:09:29;0.50;99.90
52211;DHT22;38179;52.756;6.906;2023-02-15T05:11:55;0.50;99.90
52211;DHT22;38179;52.756;6.906;2023-02-15T05:14:21;0.40;99.90
52211;DHT22;38179;52.756;6.906;2023-02-15T05:16:47;0.50;99.90
52211;DHT22;38179;52.756;6.906;2023-02-15T05:19:13;0.50;99.90
52211;DHT22;38179;52.756;6.906;2023-02-15T05:21:39;0.60;99.90
52211;DHT22;38179;52.756;6.906;2023-02-15T05:24:05;0.60;99.90
52211;DHT22;38179;52.756;6.906;2023-02-15T05:26:51;0.60;99.90
52211;DHT22;38179;52.756;6.906;2023-02-15T05:29:35;0.60;99.90
52211;DHT22;38179;52.756;6.906;2023-02-15T05:32:01;0.70;99.90
52211;DHT22;38179;52.756;6.906;2023-02-15T05:34:28;0.70;99.90
52211;DHT22;38179;52.756;6.906;2023-02-15T05:36:53;0.70;99.90
52211;DHT22;38179;52.756;6.906;2023-02-15T05:39:19;0.50;99.90
52211;DHT22;38179;52.756;6.906;2023-02-15T05:41:45;0.50;99.90
52211;DHT22;38179;52.756;6.906;2023-02-15T05:44:11;0.40;99.90
52211;DHT22;38179;52.756;6.906;2023-02-15T05:46:37;0.40;99.90
52211;DHT22;38179;52.756;6.906;2023-02-15T05:49:03;0.40;99.90
52211;DHT22;38179;52.756;6.906;2023-02-15T05:51:28;0.40;99.90
52211;DHT22;38179;52.756;6.906;2023-02-15T05:53:54;0.40;99.90
52211;DHT22;38179;52.756;6.906;2023-02-15T05:56:20;0.40;99.90
52211;DHT22;38179;52.756;6.906;2023-02-15T05:58:46;0.40;99.90
52211;DHT22;38179;52.756;6.906;2023-02-15T06:01:17;0.40;99.90
52211;DHT22;38179;52.756;6.906;2023-02-15T06:03:44;0.40;99.90
52211;DHT22;38179;52.756;6.906;2023-02-15T06:06:11;0.30;99.90
52211;DHT22;38179;52.756;6.906;2023-02-15T06:08:37;0.30;99.90
52211;DHT22;38179;52.756;6.906;2023-02-15T06:11:07;0.30;99.90
52211;DHT22;38179;52.756;6.906;2023-02-15T06:13:33;0.20;99.90
52211;DHT22;38179;52.756;6.906;2023-02-15T06:15:59;0.20;99.90
52211;DHT22;38179;52.756;6.906;2023-02-15T06:18:25;0.10;99.90
52211;DHT22;38179;52.756;6.906;2023-02-15T06:20:51;0.10;99.90
52211;DHT22;38179;52.756;6.906;2023-02-15T06:23:18;0.00;99.90
52211;DHT22;38179;52.756;6.906;2023-02-15T06:25:45;0.00;99.90
52211;DHT22;38179;52.756;6.906;2023-02-15T06:28:12;-0.10;99.90
52211;DHT22;38179;52.756;6.906;2023-02-15T06:30:37;-0.10;99.90
52211;DHT22;38179;52.756;6.906;2023-02-15T06:33:03;-0.10;99.90
52211;DHT22;38179;52.756;6.906;2023-02-15T06:35:29;0.00;99.90
52211;DHT22;38179;52.756;6.906;2023-02-15T06:37:55;0.00;99.90
52211;DHT22;38179;52.756;6.906;2023-02-15T06:40:21;-0.10;99.90
52211;DHT22;38179;52.756;6.906;2023-02-15T06:42:47;0.00;99.90
52211;DHT22;38179;52.756;6.906;2023-02-15T06:45:13;0.00;99.90
52211;DHT22;38179;52.756;6.906;2023-02-15T06:47:38;-0.10;99.90
52211;DHT22;38179;52.756;6.906;2023-02-15T06:50:06;-0.10;99.90
52211;DHT22;38179;52.756;6.906;2023-02-15T06:52:32;-0.10;99.90
52211;DHT22;38179;52.756;6.906;2023-02-15T06:54:58;-0.10;99.90
52211;DHT22;38179;52.756;6.906;2023-02-15T06:57:24;-0.20;99.90
52211;DHT22;38179;52.756;6.906;2023-02-15T06:59:50;-0.10;99.90
52211;DHT22;38179;52.756;6.906;2023-02-15T07:02:16;-0.10;99.90
52211;DHT22;38179;52.756;6.906;2023-02-15T07:04:42;-0.10;99.90
52211;DHT22;38179;52.756;6.906;2023-02-15T07:07:10;0.00;99.90
52211;DHT22;38179;52.756;6.906;2023-02-15T07:09:38;0.00;99.90
52211;DHT22;38179;52.756;6.906;2023-02-15T07:12:04;0.00;99.90
52211;DHT22;38179;52.756;6.906;2023-02-15T07:14:49;0.00;99.90
52211;DHT22;38179;52.756;6.906;2023-02-15T07:17:15;-0.10;99.90
52211;DHT22;38179;52.756;6.906;2023-02-15T07:19:41;-0.10;99.90
52211;DHT22;38179;52.756;6.906;2023-02-15T07:22:07;-0.10;99.90
52211;DHT22;38179;52.756;6.906;2023-02-15T07:24:32;-0.10;99.90
52211;DHT22;38179;52.756;6.906;2023-02-15T07:26:58;-0.10;99.90
52211;DHT22;38179;52.756;6.906;2023-02-15T07:29:24;0.00;99.90
52211;DHT22;38179;52.756;6.906;2023-02-15T07:31:50;0.10;99.90
52211;DHT22;38179;52.756;6.906;2023-02-15T07:34:18;0.10;99.90
52211;DHT22;38179;52.756;6.906;2023-02-15T07:36:45;0.20;99.90
52211;DHT22;38179;52.756;6.906;2023-02-15T07:39:13;0.20;99.90
52211;DHT22;38179;52.756;6.906;2023-02-15T07:41:39;0.20;99.90
52211;DHT22;38179;52.756;6.906;2023-02-15T07:44:05;0.30;99.90
52211;DHT22;38179;52.756;6.906;2023-02-15T07:46:36;0.30;99.90
52211;DHT22;38179;52.756;6.906;2023-02-15T07:49:02;0.40;99.90
52211;DHT22;38179;52.756;6.906;2023-02-15T07:51:29;0.40;99.90
52211;DHT22;38179;52.756;6.906;2023-02-15T07:53:55;0.50;99.90
52211;DHT22;38179;52.756;6.906;2023-02-15T07:56:20;0.50;99.90
52211;DHT22;38179;52.756;6.906;2023-02-15T07:58:46;0.50;99.90
52211;DHT22;38179;52.756;6.906;2023-02-15T08:01:24;0.60;99.90
52211;DHT22;38179;52.756;6.906;2023-02-15T08:03:50;0.60;99.90
52211;DHT22;38179;52.756;6.906;2023-02-15T08:06:16;0.60;99.90
52211;DHT22;38179;52.756;6.906;2023-02-15T08:08:42;0.70;99.90
52211;DHT22;38179;52.756;6.906;2023-02-15T08:16:43;0.80;99.90
52211;DHT22;38179;52.756;6.906;2023-02-15T08:21:49;0.80;99.90
52211;DHT22;38179;52.756;6.906;2023-02-15T08:24:18;0.90;99.90
52211;DHT22;38179;52.756;6.906;2023-02-15T08:26:44;0.90;99.90
52211;DHT22;38179;52.756;6.906;2023-02-15T08:29:16;1.00;99.90
52211;DHT22;38179;52.756;6.906;2023-02-15T08:31:43;1.10;99.90
52211;DHT22;38179;52.756;6.906;2023-02-15T08:36:39;1.20;99.90
52211;DHT22;38179;52.756;6.906;2023-02-15T08:39:08;1.20;99.90
52211;DHT22;38179;52.756;6.906;2023-02-15T08:41:35;1.30;99.90
52211;DHT22;38179;52.756;6.906;2023-02-15T08:44:04;1.40;99.90
52211;DHT22;38179;52.756;6.906;2023-02-15T08:46:33;1.50;99.90
52211;DHT22;38179;52.756;6.906;2023-02-15T08:48:59;1.60;99.90
52211;DHT22;38179;52.756;6.906;2023-02-15T08:51:28;1.70;99.90
52211;DHT22;38179;52.756;6.906;2023-02-15T08:53:56;1.80;99.90
52211;DHT22;38179;52.756;6.906;2023-02-15T08:56:28;1.90;99.90
52211;DHT22;38179;52.756;6.906;2023-02-15T08:58:55;2.00;99.90
52211;DHT22;38179;52.756;6.906;2023-02-15T09:01:27;2.10;99.90
52211;DHT22;38179;52.756;6.906;2023-02-15T09:04:04;2.30;99.90
52211;DHT22;38179;52.756;6.906;2023-02-15T09:06:31;2.40;99.90
52211;DHT22;38179;52.756;6.906;2023-02-15T09:08:57;2.40;99.90
52211;DHT22;38179;52.756;6.906;2023-02-15T09:11:32;2.50;99.90
52211;DHT22;38179;52.756;6.906;2023-02-15T09:14:06;2.60;99.90
52211;DHT22;38179;52.756;6.906;2023-02-15T09:16:36;2.70;99.90
52211;DHT22;38179;52.756;6.906;2023-02-15T09:19:03;2.80;99.90
52211;DHT22;38179;52.756;6.906;2023-02-15T09:21:31;2.80;99.90
52211;DHT22;38179;52.756;6.906;2023-02-15T09:23:59;2.90;99.90
52211;DHT22;38179;52.756;6.906;2023-02-15T09:26:26;3.00;99.90
52211;DHT22;38179;52.756;6.906;2023-02-15T09:28:56;3.10;99.90
52211;DHT22;38179;52.756;6.906;2023-02-15T09:31:28;3.20;99.90
52211;DHT22;38179;52.756;6.906;2023-02-15T09:33:54;3.30;99.90
52211;DHT22;38179;52.756;6.906;2023-02-15T09:36:28;3.40;99.90
52211;DHT22;38179;52.756;6.906;2023-02-15T09:39:12;3.40;99.90
52211;DHT22;38179;52.756;6.906;2023-02-15T10:00:39;4.10;99.90
52211;DHT22;38179;52.756;6.906;2023-02-15T10:14:30;4.50;99.90
52211;DHT22;38179;52.756;6.906;2023-02-15T10:27:50;5.00;99.90
52211;DHT22;38179;52.756;6.906;2023-02-15T10:41:44;5.60;99.90
52211;DHT22;38179;52.756;6.906;2023-02-15T10:55:10;6.10;99.90
52211;DHT22;38179;52.756;6.906;2023-02-15T11:00:45;6.20;99.90
52211;DHT22;38179;52.756;6.906;2023-02-15T11:03:33;6.30;99.90
52211;DHT22;38179;52.756;6.906;2023-02-15T11:06:09;6.40;99.90
52211;DHT22;38179;52.756;6.906;2023-02-15T11:08:44;6.50;99.90
52211;DHT22;38179;52.756;6.906;2023-02-15T11:11:30;6.60;99.90
52211;DHT22;38179;52.756;6.906;2023-02-15T11:14:17;6.80;99.90
52211;DHT22;38179;52.756;6.906;2023-02-15T11:16:49;6.90;99.90
52211;DHT22;38179;52.756;6.906;2023-02-15T11:19:34;7.00;99.90
52211;DHT22;38179;52.756;6.906;2023-02-15T11:22:06;7.10;99.90
52211;DHT22;38179;52.756;6.906;2023-02-15T11:24:40;7.10;99.90
52211;DHT22;38179;52.756;6.906;2023-02-15T11:32:21;7.30;99.90
52211;DHT22;38179;52.756;6.906;2023-02-15T11:37:29;7.60;99.90
52211;DHT22;38179;52.756;6.906;2023-02-15T11:39:57;7.50;99.90
52211;DHT22;38179;52.756;6.906;2023-02-15T11:42:24;7.60;99.90
52211;DHT22;38179;52.756;6.906;2023-02-15T11:44:59;7.70;99.90
52211;DHT22;38179;52.756;6.906;2023-02-15T11:47:26;7.80;99.90
52211;DHT22;38179;52.756;6.906;2023-02-15T11:49:52;7.90;99.90
52211;DHT22;38179;52.756;6.906;2023-02-15T11:52:18;8.00;99.90
52211;DHT22;38179;52.756;6.906;2023-02-15T11:54:46;8.00;99.90
52211;DHT22;38179;52.756;6.906;2023-02-15T12:03:24;8.30;99.90
52211;DHT22;38179;52.756;6.906;2023-02-15T12:05:56;8.40;99.90
52211;DHT22;38179;52.756;6.906;2023-02-15T12:08:24;8.50;99.90
52211;DHT22;38179;52.756;6.906;2023-02-15T12:11:21;8.60;99.90
52211;DHT22;38179;52.756;6.906;2023-02-15T12:13:59;8.70;99.90
52211;DHT22;38179;52.756;6.906;2023-02-15T12:16:27;8.70;99.90
52211;DHT22;38179;52.756;6.906;2023-02-15T12:18:59;8.80;99.90
52211;DHT22;38179;52.756;6.906;2023-02-15T12:21:31;8.80;99.90
52211;DHT22;38179;52.756;6.906;2023-02-15T12:24:19;8.90;99.90
52211;DHT22;38179;52.756;6.906;2023-02-15T12:27:00;9.00;99.90
52211;DHT22;38179;52.756;6.906;2023-02-15T12:29:29;9.10;99.90
52211;DHT22;38179;52.756;6.906;2023-02-15T12:31:57;9.20;99.90
52211;DHT22;38179;52.756;6.906;2023-02-15T12:34:30;9.20;99.90
52211;DHT22;38179;52.756;6.906;2023-02-15T12:37:01;9.30;99.90
52211;DHT22;38179;52.756;6.906;2023-02-15T12:39:31;9.40;99.90
52211;DHT22;38179;52.756;6.906;2023-02-15T12:42:08;9.60;99.90
52211;DHT22;38179;52.756;6.906;2023-02-15T12:47:19;9.70;99.90
52211;DHT22;38179;52.756;6.906;2023-02-15T12:50:22;9.70;99.90
52211;DHT22;38179;52.756;6.906;2023-02-15T12:52:50;9.80;99.90
52211;DHT22;38179;52.756;6.906;2023-02-15T12:57:47;9.90;99.90
52211;DHT22;38179;52.756;6.906;2023-02-15T13:02:51;10.00;99.90
52211;DHT22;38179;52.756;6.906;2023-02-15T13:07:56;10.00;99.90
52211;DHT22;38179;52.756;6.906;2023-02-15T13:10:39;10.10;99.90
52211;DHT22;38179;52.756;6.906;2023-02-15T13:13:18;10.10;99.90
52211;DHT22;38179;52.756;6.906;2023-02-15T13:15:50;10.20;99.90
52211;DHT22;38179;52.756;6.906;2023-02-15T13:18:20;10.20;99.90
52211;DHT22;38179;52.756;6.906;2023-02-15T13:20:50;10.20;99.90
52211;DHT22;38179;52.756;6.906;2023-02-15T13:23:26;10.20;99.90
52211;DHT22;38179;52.756;6.906;2023-02-15T13:25:58;10.30;99.90
52211;DHT22;38179;52.756;6.906;2023-02-15T13:28:40;10.20;99.90
52211;DHT22;38179;52.756;6.906;2023-02-15T13:31:19;10.30;99.90
52211;DHT22;38179;52.756;6.906;2023-02-15T13:33:53;10.30;99.90
52211;DHT22;38179;52.756;6.906;2023-02-15T13:36:37;10.40;99.90
52211;DHT22;38179;52.756;6.906;2023-02-15T13:42:18;10.30;99.90
52211;DHT22;38179;52.756;6.906;2023-02-15T13:47:50;10.30;99.90
52211;DHT22;38179;52.756;6.906;2023-02-15T13:50:34;10.30;99.90
52211;DHT22;38179;52.756;6.906;2023-02-15T14:04:04;10.40;99.90
52211;DHT22;38179;52.756;6.906;2023-02-15T14:15:18;10.70;99.90
52211;DHT22;38179;52.756;6.906;2023-02-15T14:20:57;10.60;99.90
52211;DHT22;38179;52.756;6.906;2023-02-15T14:29:13;10.60;99.90
52211;DHT22;38179;52.756;6.906;2023-02-15T14:31:45;10.60;99.90
52211;DHT22;38179;52.756;6.906;2023-02-15T14:34:35;10.50;99.90
52211;DHT22;38179;52.756;6.906;2023-02-15T14:37:03;10.50;99.90
52211;DHT22;38179;52.756;6.906;2023-02-15T14:39:55;10.50;99.90
52211;DHT22;38179;52.756;6.906;2023-02-15T14:43:09;10.40;99.90
52211;DHT22;38179;52.756;6.906;2023-02-15T14:45:53;10.40;99.90
52211;DHT22;38179;52.756;6.906;2023-02-15T14:48:25;10.30;99.90
52211;DHT22;38179;52.756;6.906;2023-02-15T14:50:55;10.30;99.90
52211;DHT22;38179;52.756;6.906;2023-02-15T14:53:34;10.30;99.90
52211;DHT22;38179;52.756;6.906;2023-02-15T14:58:58;10.30;99.90
52211;DHT22;38179;52.756;6.906;2023-02-15T15:01:35;10.30;99.90
52211;DHT22;38179;52.756;6.906;2023-02-15T15:04:26;10.20;99.90
52211;DHT22;38179;52.756;6.906;2023-02-15T15:07:26;10.20;99.90
52211;DHT22;38179;52.756;6.906;2023-02-15T15:14:59;10.20;99.90
52211;DHT22;38179;52.756;6.906;2023-02-15T15:22:30;10.10;99.90
52211;DHT22;38179;52.756;6.906;2023-02-15T15:25:00;10.10;99.90
52211;DHT22;38179;52.756;6.906;2023-02-15T15:39:09;9.90;99.90
52211;DHT22;38179;52.756;6.906;2023-02-15T15:41:47;9.90;99.90
52211;DHT22;38179;52.756;6.906;2023-02-15T15:44:40;9.90;99.90
52211;DHT22;38179;52.756;6.906;2023-02-15T15:49:43;9.80;99.90
52211;DHT22;38179;52.756;6.906;2023-02-15T15:52:19;9.80;99.90
52211;DHT22;38179;52.756;6.906;2023-02-15T15:54:51;9.70;99.90
52211;DHT22;38179;52.756;6.906;2023-02-15T15:57:41;9.70;99.90
52211;DHT22;38179;52.756;6.906;2023-02-15T16:00:36;9.70;99.90
52211;DHT22;38179;52.756;6.906;2023-02-15T16:03:04;9.60;99.90
52211;DHT22;38179;52.756;6.906;2023-02-15T16:05:39;9.50;99.90
52211;DHT22;38179;52.756;6.906;2023-02-15T16:08:06;9.50;99.90
52211;DHT22;38179;52.756;6.906;2023-02-15T16:10:33;9.40;99.90
52211;DHT22;38179;52.756;6.906;2023-02-15T16:13:00;9.40;99.90
52211;DHT22;38179;52.756;6.906;2023-02-15T16:15:43;9.40;99.90
52211;DHT22;38179;52.756;6.906;2023-02-15T16:18:15;9.30;99.90
52211;DHT22;38179;52.756;6.906;2023-02-15T16:20:55;9.30;99.90
52211;DHT22;38179;52.756;6.906;2023-02-15T16:28:35;9.20;99.90
52211;DHT22;38179;52.756;6.906;2023-02-15T16:31:15;9.20;99.90
52211;DHT22;38179;52.756;6.906;2023-02-15T16:33:43;9.10;99.90
52211;DHT22;38179;52.756;6.906;2023-02-15T16:41:28;9.00;99.90
52211;DHT22;38179;52.756;6.906;2023-02-15T16:43:59;8.90;99.90
52211;DHT22;38179;52.756;6.906;2023-02-15T16:46:31;8.90;99.90
52211;DHT22;38179;52.756;6.906;2023-02-15T16:49:01;8.90;99.90
52211;DHT22;38179;52.756;6.906;2023-02-15T16:51:31;8.90;99.90
52211;DHT22;38179;52.756;6.906;2023-02-15T16:54:07;8.90;99.90
52211;DHT22;38179;52.756;6.906;2023-02-15T16:56:34;8.90;99.90
52211;DHT22;38179;52.756;6.906;2023-02-15T16:59:00;8.80;99.90
52211;DHT22;38179;52.756;6.906;2023-02-15T17:01:31;8.80;99.90
52211;DHT22;38179;52.756;6.906;2023-02-15T17:04:28;8.80;99.90
52211;DHT22;38179;52.756;6.906;2023-02-15T17:06:59;8.70;99.90
52211;DHT22;38179;52.756;6.906;2023-02-15T17:09:27;8.70;99.90
52211;DHT22;38179;52.756;6.906;2023-02-15T17:11:52;8.70;99.90
52211;DHT22;38179;52.756;6.906;2023-02-15T17:14:27;8.60;99.90
52211;DHT22;38179;52.756;6.906;2023-02-15T17:16:58;8.60;99.90
52211;DHT22;38179;52.756;6.906;2023-02-15T17:19:27;8.60;99.90
52211;DHT22;38179;52.756;6.906;2023-02-15T17:21:55;8.50;99.90
52211;DHT22;38179;52.756;6.906;2023-02-15T17:24:39;8.50;99.90
52211;DHT22;38179;52.756;6.906;2023-02-15T17:27:18;8.40;99.90
52211;DHT22;38179;52.756;6.906;2023-02-15T17:29:55;8.40;99.90
52211;DHT22;38179;52.756;6.906;2023-02-15T17:32:26;8.40;99.90
52211;DHT22;38179;52.756;6.906;2023-02-15T17:35:20;8.30;99.90
52211;DHT22;38179;52.756;6.906;2023-02-15T17:37:48;8.30;99.90
52211;DHT22;38179;52.756;6.906;2023-02-15T17:40:26;8.20;99.90
52211;DHT22;38179;52.756;6.906;2023-02-15T17:42:52;8.20;99.90
52211;DHT22;38179;52.756;6.906;2023-02-15T17:45:19;8.20;99.90
52211;DHT22;38179;52.756;6.906;2023-02-15T17:47:47;8.20;99.90
52211;DHT22;38179;52.756;6.906;2023-02-15T17:50:22;8.20;99.90
52211;DHT22;38179;52.756;6.906;2023-02-15T17:52:49;8.10;99.90
52211;DHT22;38179;52.756;6.906;2023-02-15T17:55:17;8.10;99.90
52211;DHT22;38179;52.756;6.906;2023-02-15T17:58:05;8.00;99.90
52211;DHT22;38179;52.756;6.906;2023-02-15T18:00:31;8.00;99.90
52211;DHT22;38179;52.756;6.906;2023-02-15T18:03:18;8.00;99.90
52211;DHT22;38179;52.756;6.906;2023-02-15T18:06:02;7.90;99.90
52211;DHT22;38179;52.756;6.906;2023-02-15T18:08:46;7.90;99.90
52211;DHT22;38179;52.756;6.906;2023-02-15T18:11:31;7.80;99.90
52211;DHT22;38179;52.756;6.906;2023-02-15T18:14:08;7.80;99.90
52211;DHT22;38179;52.756;6.906;2023-02-15T18:16:39;7.70;99.90
52211;DHT22;38179;52.756;6.906;2023-02-15T18:19:19;7.70;99.90
52211;DHT22;38179;52.756;6.906;2023-02-15T18:21:46;7.60;99.90
52211;DHT22;38179;52.756;6.906;2023-02-15T18:24:21;7.60;99.90
52211;DHT22;38179;52.756;6.906;2023-02-15T18:26:49;7.50;99.90
52211;DHT22;38179;52.756;6.906;2023-02-15T18:29:15;7.50;99.90
52211;DHT22;38179;52.756;6.906;2023-02-15T18:31:43;7.40;99.90
52211;DHT22;38179;52.756;6.906;2023-02-15T18:34:28;7.40;99.90
52211;DHT22;38179;52.756;6.906;2023-02-15T18:36:56;7.40;99.90
52211;DHT22;38179;52.756;6.906;2023-02-15T18:39:25;7.40;99.90
52211;DHT22;38179;52.756;6.906;2023-02-15T18:41:52;7.30;99.90
52211;DHT22;38179;52.756;6.906;2023-02-15T18:44:18;7.40;99.90
52211;DHT22;38179;52.756;6.906;2023-02-15T18:46:44;7.40;99.90
52211;DHT22;38179;52.756;6.906;2023-02-15T18:49:10;7.40;99.90
52211;DHT22;38179;52.756;6.906;2023-02-15T18:51:36;7.50;99.90
52211;DHT22;38179;52.756;6.906;2023-02-15T18:54:07;7.50;99.90
52211;DHT22;38179;52.756;6.906;2023-02-15T18:56:37;7.40;99.90
52211;DHT22;38179;52.756;6.906;2023-02-15T18:59:03;7.50;99.90
52211;DHT22;38179;52.756;6.906;2023-02-15T19:01:28;7.50;99.90
52211;DHT22;38179;52.756;6.906;2023-02-15T19:03:54;7.50;99.90
52211;DHT22;38179;52.756;6.906;2023-02-15T19:06:21;7.50;99.90
52211;DHT22;38179;52.756;6.906;2023-02-15T19:08:51;7.50;99.90
52211;DHT22;38179;52.756;6.906;2023-02-15T19:11:19;7.60;99.90
52211;DHT22;38179;52.756;6.906;2023-02-15T19:13:49;7.50;99.90
52211;DHT22;38179;52.756;6.906;2023-02-15T19:16:34;7.50;99.90
52211;DHT22;38179;52.756;6.906;2023-02-15T19:19:00;7.60;99.90
52211;DHT22;38179;52.756;6.906;2023-02-15T19:21:29;7.50;99.90
52211;DHT22;38179;52.756;6.906;2023-02-15T19:24:03;7.60;99.90
52211;DHT22;38179;52.756;6.906;2023-02-15T19:26:31;7.60;99.90